Flight Track Log - Related Links

Times and Time Zones

All times are in EDT time to prevent confusion due to time zone crossing. See the GLA154 flight status page for this flight to view local times or setup timezone preferences in your user account.

Time Position Orientation Groundspeed Altitude Reporting Facility
EDT Latitude Longitude Course Direction KTS MPH feet Rate Location/Type
Mon 09:49:41 AM 34.6319 -112.4492 312° West 183 211 6,000  Level Albuquerque Center
Mon 09:50:42 AM 34.6686 -112.4753 330° Northwest 186 214 7,500 1,574 Climbing Albuquerque Center
Mon 09:51:43 AM 34.7156 -112.5192 322° Northwest 177 204 9,200 1,377 Climbing Albuquerque Center
Mon 09:52:44 AM 34.7614 -112.5539 328° Northwest 189 217 10,300 1,033 Climbing Albuquerque Center
Mon 09:53:45 AM 34.7867 -112.6144 297° West 200 230 11,300 885 Climbing Albuquerque Center
Mon 09:54:46 AM 34.8122 -112.6775 296° West 206 237 12,100 885 Climbing Albuquerque Center
Mon 09:55:00 AM 34.9918 -112.7779 312° West  Level FlightAware Approximate
Mon 09:55:47 AM 34.8375 -112.7397 296° West 206 237 13,100  Level Albuquerque Center
Mon 09:56:48 AM 34.8639 -112.8011 298° West 205 236 13,900 439 Climbing Albuquerque Center
Mon 09:57:50 AM 34.8917 -112.8675 297° West 214 246 14,000 49 Climbing Albuquerque Center
Mon 09:58:51 AM 34.9161 -112.9414 292° West 230 265 14,000  Level Albuquerque Center
Mon 09:59:52 AM 34.9456 -113.0156 296° West 239 275 14,000 -98 Level Albuquerque Center
Mon 10:00:53 AM 34.9736 -113.0886 295° West 238 274 13,800 49 Descending Albuquerque Center
Mon 10:01:54 AM 35.0058 -113.1775 294° West 238 274 14,100 195 Climbing Albuquerque Center
Mon 10:02:56 AM 35.0328 -113.2506 294° West 236 272 14,200 49 Climbing Albuquerque Center
Mon 10:03:57 AM 35.0614 -113.3233 296° West 236 272 14,200 -49 Level Albuquerque Center
Mon 10:04:58 AM 35.0925 -113.3944 298° West 237 273 14,100 -74 Descending Albuquerque Center
Mon 10:05:18 AM 35.1000 -113.4094 301° West 238 274 14,100  Level Los Angeles Center
Mon 10:06:20 AM 35.1367 -113.4972 297° West 241 277 14,100 98 Level Los Angeles Center
Mon 10:07:21 AM 35.1669 -113.5675 298° West 235 270 14,300 49 Climbing Los Angeles Center
Mon 10:08:22 AM 35.1914 -113.6189 300° West 225 259 14,200 -49 Descending Los Angeles Center
Mon 10:09:24 AM 35.2419 -113.5606 43° Northeast 261 300 14,200 -48 Level Los Angeles Center
Mon 10:10:26 AM 35.2072 -113.4817 118° Southeast 267 307 14,100 -49 Descending Los Angeles Center
Mon 10:11:27 AM 35.1697 -113.4008 120° Southeast 272 313 14,100 -49 Level Los Angeles Center
Mon 10:12:29 AM 35.1339 -113.3186 118° Southeast 275 316 14,000 59 Descending Los Angeles Center
Mon 10:13:09 AM 35.1022 -113.2533 121° Southeast 277 319 14,200 59 Climbing Albuquerque Center
Mon 10:14:10 AM 35.0639 -113.1686 119° Southeast 285 328 14,100 -49 Descending Albuquerque Center
Mon 10:15:12 AM 35.0256 -113.0867 120° Southeast 284 327 14,100  Level Albuquerque Center
Mon 10:16:13 AM 34.9881 -113.0064 120° Southeast 279 321 14,100  Level Albuquerque Center
Mon 10:17:14 AM 34.9444 -112.9092 119° Southeast 275 316 14,100 -98 Level Albuquerque Center
Mon 10:18:16 AM 34.9042 -112.8328 123° Southeast 271 312 13,900 -488 Descending Albuquerque Center
Mon 10:19:17 AM 34.8622 -112.7547 123° Southeast 276 318 13,100 -1,122 Descending Albuquerque Center
Mon 10:20:19 AM 34.8339 -112.6628 111° Southeast 288 331 11,600 -1,608 Descending Albuquerque Center
Mon 10:21:50 AM 34.8000 -112.5167 106° East 284 327 9,000 -1,463 Descending Phoenix TRACON
Mon 10:22:22 AM 34.7847 -112.4825 119° Southeast 281 323 8,600 -839 Descending Albuquerque Center
Mon 10:23:23 AM 34.7564 -112.4094 115° Southeast 253 291 7,700 -1,122 Descending Albuquerque Center
Mon 10:24:25 AM 34.7025 -112.3753 152° Southeast 194 223 6,300 -1,171 Descending Albuquerque Center
Mon 10:25:26 AM 34.6675 -112.4072 217° Southwest 173 199 5,300 -984 Descending Albuquerque Center

Login

Don't have an account? Register now (free) for customized features, flight alerts, and more!